createdAt,value
2022-08-01T00:01:34.348Z,21.27
2022-08-01T00:04:03.039Z,21.26
2022-08-01T00:06:31.429Z,21.50
2022-08-01T00:08:59.798Z,21.63
2022-08-01T00:11:28.239Z,21.78
2022-08-01T00:13:56.547Z,21.43
2022-08-01T00:16:24.869Z,21.38
2022-08-01T00:18:55.731Z,21.78
2022-08-01T00:21:24.242Z,21.80
2022-08-01T00:23:52.550Z,21.64
2022-08-01T00:26:20.962Z,21.68
2022-08-01T00:28:49.273Z,21.93
2022-08-01T00:31:17.611Z,21.69
2022-08-01T00:33:45.920Z,22.06
2022-08-01T00:36:15.606Z,22.14
2022-08-01T00:38:43.890Z,22.02
2022-08-01T00:41:12.449Z,22.23
2022-08-01T00:43:40.782Z,21.94
2022-08-01T00:46:09.297Z,22.30
2022-08-01T00:48:37.710Z,22.09
2022-08-01T00:51:07.191Z,22.06
2022-08-01T00:53:50.677Z,22.62
2022-08-01T00:56:21.473Z,22.59
2022-08-01T00:58:50.401Z,22.42
2022-08-01T01:01:19.144Z,22.39
2022-08-01T01:04:03.048Z,22.24
2022-08-01T01:06:46.706Z,22.40
2022-08-01T01:09:27.631Z,22.15
2022-08-01T01:12:21.988Z,22.29
2022-08-01T01:14:58.886Z,22.30
2022-08-01T01:17:51.353Z,21.87
2022-08-01T01:20:23.731Z,21.68
2022-08-01T01:23:17.886Z,21.53
2022-08-01T01:26:10.870Z,21.02
2022-08-01T01:29:15.564Z,20.79
2022-08-01T01:31:49.924Z,20.66
2022-08-01T01:34:21.163Z,21.18
2022-08-01T01:36:51.897Z,21.04
2022-08-01T01:39:22.618Z,21.38
2022-08-01T01:41:53.514Z,21.56
2022-08-01T01:44:23.193Z,22.10
2022-08-01T01:46:53.714Z,22.06
2022-08-01T01:49:26.455Z,22.21
2022-08-01T01:52:03.847Z,21.74
2022-08-01T01:54:37.632Z,21.71
2022-08-01T01:57:08.853Z,22.03
2022-08-01T01:59:41.507Z,21.92
2022-08-01T02:02:11.518Z,22.04
2022-08-01T02:04:44.610Z,21.78
2022-08-01T02:07:16.593Z,21.84
2022-08-01T02:09:47.063Z,21.46
2022-08-01T02:12:16.421Z,21.65
2022-08-01T02:14:48.188Z,22.56
2022-08-01T02:17:21.988Z,22.40
2022-08-01T02:19:50.733Z,22.68
2022-08-01T02:22:28.001Z,22.29
2022-08-01T02:25:03.411Z,22.16
2022-08-01T02:27:47.932Z,22.48
2022-08-01T02:30:18.744Z,22.12
2022-08-01T02:32:51.096Z,22.11
2022-08-01T02:35:25.522Z,21.57
2022-08-01T02:37:55.071Z,22.33
2022-08-01T02:40:23.889Z,22.32
2022-08-01T02:42:55.503Z,22.22
2022-08-01T02:45:28.888Z,22.21
2022-08-01T02:48:04.179Z,22.08
2022-08-01T02:50:34.396Z,21.60
2022-08-01T02:53:03.952Z,22.45
2022-08-01T02:55:36.169Z,21.61
2022-08-01T02:58:05.122Z,22.13
2022-08-01T03:00:36.644Z,21.83
2022-08-01T03:03:09.029Z,21.84
2022-08-01T03:05:41.028Z,22.17
2022-08-01T03:08:14.725Z,22.39
2022-08-01T03:10:47.869Z,22.37
2022-08-01T03:13:20.072Z,22.51
2022-08-01T03:15:51.494Z,22.94
2022-08-01T03:18:20.734Z,22.57
2022-08-01T03:20:49.388Z,22.34
2022-08-01T03:23:19.301Z,22.70
2022-08-01T03:25:49.637Z,21.96
2022-08-01T03:28:19.311Z,22.42
2022-08-01T03:30:50.864Z,22.02
2022-08-01T03:33:19.353Z,22.64
2022-08-01T03:35:51.724Z,21.89
2022-08-01T03:38:23.635Z,22.20
2022-08-01T03:40:57.895Z,21.72
2022-08-01T03:43:33.791Z,22.32
2022-08-01T03:46:09.453Z,23.03
2022-08-01T03:48:42.811Z,22.59
2022-08-01T03:51:13.404Z,22.29
2022-08-01T03:53:44.610Z,22.09
2022-08-01T03:56:14.830Z,22.59
2022-08-01T03:58:50.079Z,22.73
2022-08-01T04:01:21.568Z,23.29
2022-08-01T04:03:50.520Z,22.79
2022-08-01T04:06:19.082Z,22.91
2022-08-01T04:08:56.698Z,22.94
2022-08-01T04:11:28.281Z,23.20
2022-08-01T04:13:58.302Z,22.50
2022-08-01T04:16:28.694Z,22.99
2022-08-01T04:18:57.078Z,23.28
2022-08-01T04:21:29.759Z,23.56
2022-08-01T04:24:06.289Z,23.85
2022-08-01T04:26:36.866Z,23.67
2022-08-01T04:29:08.766Z,23.19
2022-08-01T04:31:41.418Z,23.59
2022-08-01T04:34:11.468Z,23.19
2022-08-01T04:36:43.048Z,22.50
2022-08-01T04:39:12.606Z,23.37
2022-08-01T04:41:43.513Z,23.39
2022-08-01T04:44:12.189Z,23.59
2022-08-01T04:46:43.238Z,22.71
2022-08-01T04:49:13.180Z,22.89
2022-08-01T04:51:53.269Z,22.55
2022-08-01T04:54:22.551Z,22.42
2022-08-01T04:56:51.500Z,21.62
2022-08-01T04:59:37.556Z,22.93
2022-08-01T05:02:07.666Z,23.04
2022-08-01T05:04:36.491Z,23.74
2022-08-01T05:07:05.243Z,23.75
2022-08-01T05:09:34.297Z,23.64
2022-08-01T05:12:04.207Z,22.47
2022-08-01T05:14:33.753Z,22.77
2022-08-01T05:17:04.204Z,22.66
2022-08-01T05:19:34.904Z,22.59
2022-08-01T05:22:06.007Z,23.03
2022-08-01T05:24:35.248Z,23.53
2022-08-01T05:27:05.468Z,22.76
2022-08-01T05:29:35.856Z,22.62
2022-08-01T05:32:05.188Z,23.04
2022-08-01T05:34:35.405Z,23.28
2022-08-01T05:37:04.082Z,22.87
2022-08-01T05:39:32.575Z,22.92
2022-08-01T05:42:00.893Z,22.87
2022-08-01T05:44:29.237Z,22.30
2022-08-01T05:46:57.711Z,22.46
2022-08-01T05:49:26.110Z,23.08
2022-08-01T05:51:56.134Z,23.51
2022-08-01T05:54:24.486Z,23.46
2022-08-01T05:56:52.783Z,23.53
2022-08-01T05:59:21.625Z,23.70
2022-08-01T06:01:50.542Z,23.47
2022-08-01T06:04:18.876Z,24.16
2022-08-01T06:06:47.204Z,22.91
2022-08-01T06:09:16.879Z,23.17
2022-08-01T06:11:45.220Z,23.22
2022-08-01T06:14:13.526Z,23.55
2022-08-01T06:16:41.878Z,23.64
2022-08-01T06:19:10.194Z,23.72
2022-08-01T06:21:38.528Z,24.26
2022-08-01T06:24:07.373Z,24.13
2022-08-01T06:26:38.105Z,24.25
2022-08-01T06:29:06.402Z,23.83
2022-08-01T06:31:34.814Z,23.67
2022-08-01T06:34:03.132Z,24.52
2022-08-01T06:36:31.469Z,24.60
2022-08-01T06:38:59.768Z,25.26
2022-08-01T06:41:28.169Z,24.93
2022-08-01T06:43:57.835Z,26.32
2022-08-01T06:46:30.315Z,26.07
2022-08-01T06:49:00.879Z,26.37
2022-08-01T06:51:29.243Z,25.18
2022-08-01T06:53:57.583Z,25.35
2022-08-01T06:56:25.989Z,25.66
2022-08-01T06:58:57.290Z,25.57
2022-08-01T07:01:27.125Z,25.09
2022-08-01T07:03:55.600Z,24.80
2022-08-01T07:06:25.305Z,24.78
2022-08-01T07:08:54.127Z,24.86
2022-08-01T07:11:23.234Z,24.88
2022-08-01T07:13:51.945Z,25.01
2022-08-01T07:16:20.317Z,23.58
2022-08-01T07:18:50.028Z,24.79
2022-08-01T07:21:39.943Z,24.79
2022-08-01T07:24:11.965Z,23.97
2022-08-01T07:26:53.961Z,24.81
2022-08-01T07:29:25.194Z,24.67
2022-08-01T07:31:54.940Z,24.78
2022-08-01T07:34:25.920Z,24.28
2022-08-01T07:36:55.058Z,24.15
2022-08-01T07:39:23.366Z,23.80
2022-08-01T07:42:06.554Z,24.71
2022-08-01T07:44:37.295Z,25.03
2022-08-01T07:47:06.408Z,26.27
2022-08-01T07:49:40.326Z,26.97
2022-08-01T07:52:09.903Z,27.29
2022-08-01T07:54:38.971Z,27.27
2022-08-01T07:57:08.207Z,27.22
2022-08-01T07:59:37.318Z,27.73
2022-08-01T08:02:06.280Z,27.51
2022-08-01T08:04:36.610Z,27.34
2022-08-01T08:07:05.975Z,26.70
2022-08-01T08:09:37.987Z,27.21
2022-08-01T08:12:08.113Z,27.87
2022-08-01T08:14:37.173Z,27.54
2022-08-01T08:17:05.995Z,27.54
2022-08-01T08:19:39.049Z,27.39
2022-08-01T08:22:08.968Z,27.10
2022-08-01T08:24:45.635Z,26.37
2022-08-01T08:27:15.801Z,24.47
2022-08-01T08:29:45.025Z,23.69
2022-08-01T08:32:14.412Z,25.49
2022-08-01T08:34:44.671Z,26.93
2022-08-01T08:37:13.880Z,28.67
2022-08-01T08:39:42.735Z,28.49
2022-08-01T08:42:12.313Z,26.91
2022-08-01T08:44:43.432Z,25.47
2022-08-01T08:47:18.987Z,26.23
2022-08-01T08:49:52.340Z,25.89
2022-08-01T08:52:22.389Z,26.00
2022-08-01T08:54:52.453Z,26.56
2022-08-01T08:57:22.740Z,25.69
2022-08-01T08:59:53.072Z,26.34
2022-08-01T09:02:22.128Z,25.83
2022-08-01T09:04:53.497Z,26.62
2022-08-01T09:07:23.878Z,27.00
2022-08-01T09:09:52.950Z,27.52
2022-08-01T09:12:22.484Z,27.44
2022-08-01T09:14:54.484Z,25.79
2022-08-01T09:17:23.699Z,25.88
2022-08-01T09:19:57.734Z,27.12
2022-08-01T09:22:28.031Z,27.42
2022-08-01T09:25:01.357Z,27.28
2022-08-01T09:27:30.575Z,25.95
2022-08-01T09:30:11.774Z,25.08
2022-08-01T09:32:56.598Z,26.24
2022-08-01T09:35:29.931Z,27.13
2022-08-01T09:38:16.306Z,27.36
2022-08-01T09:40:54.076Z,27.41
2022-08-01T09:43:24.712Z,27.90
2022-08-01T09:45:54.976Z,28.00
2022-08-01T09:48:28.417Z,28.10
2022-08-01T09:51:07.310Z,27.97
2022-08-01T09:53:51.112Z,28.72
2022-08-01T09:56:22.727Z,27.78
2022-08-01T09:58:58.868Z,28.11
2022-08-01T10:01:36.066Z,28.82
2022-08-01T10:04:12.547Z,27.97
2022-08-01T10:06:45.342Z,28.34
2022-08-01T10:09:15.290Z,28.70
2022-08-01T10:11:45.485Z,28.93
2022-08-01T10:14:17.724Z,29.52
2022-08-01T10:16:53.687Z,28.08
2022-08-01T10:19:25.446Z,27.81
2022-08-01T10:22:00.509Z,28.77
2022-08-01T10:24:33.401Z,29.31
2022-08-01T10:27:09.009Z,28.47
2022-08-01T10:29:46.674Z,28.02
2022-08-01T10:32:34.274Z,28.13
2022-08-01T10:35:06.766Z,27.92
2022-08-01T10:37:51.839Z,27.93
2022-08-01T10:40:31.012Z,27.42
2022-08-01T10:43:00.846Z,26.86
2022-08-01T10:45:30.902Z,26.23
2022-08-01T10:48:06.727Z,27.23
2022-08-01T10:50:39.541Z,27.99
2022-08-01T10:53:16.081Z,26.39
2022-08-01T10:55:51.278Z,26.26
2022-08-01T10:58:24.620Z,26.27
2022-08-01T11:01:15.818Z,25.81
2022-08-01T11:03:57.524Z,26.06
2022-08-01T11:06:37.457Z,26.43
2022-08-01T11:09:18.910Z,26.43
2022-08-01T11:12:06.253Z,25.58
2022-08-01T11:14:55.375Z,25.51
2022-08-01T11:17:37.809Z,25.83
2022-08-01T11:20:09.559Z,25.79
2022-08-01T11:23:17.787Z,26.39
2022-08-01T11:26:10.895Z,25.78
2022-08-01T11:28:47.058Z,25.49
2022-08-01T11:31:37.920Z,25.48
2022-08-01T11:34:07.236Z,26.61
2022-08-01T11:36:58.511Z,26.33
2022-08-01T11:39:24.598Z,26.52
2022-08-01T11:41:55.697Z,27.19
2022-08-01T11:44:30.259Z,27.73
2022-08-01T11:47:09.102Z,27.33
2022-08-01T11:49:51.766Z,26.89
2022-08-01T11:52:25.601Z,27.19
2022-08-01T11:54:55.872Z,27.02
2022-08-01T11:57:34.292Z,26.59
2022-08-01T12:00:08.328Z,26.96
2022-08-01T12:02:37.745Z,27.15
2022-08-01T12:05:12.154Z,26.66
2022-08-01T12:07:42.303Z,26.46
2022-08-01T12:10:13.060Z,26.22
2022-08-01T12:12:47.278Z,27.42
2022-08-01T12:15:16.112Z,26.49
2022-08-01T12:17:59.029Z,26.66
2022-08-01T12:20:31.696Z,26.88
2022-08-01T12:23:02.775Z,26.18
2022-08-01T12:25:31.467Z,26.80
2022-08-01T12:28:05.182Z,27.41
2022-08-01T12:30:36.423Z,27.05
2022-08-01T12:33:06.519Z,25.75
2022-08-01T12:35:37.415Z,25.68
2022-08-01T12:38:08.419Z,26.25
2022-08-01T12:40:45.286Z,26.83
2022-08-01T12:43:27.103Z,26.37
2022-08-01T12:46:00.075Z,25.61
2022-08-01T12:48:30.121Z,25.61
2022-08-01T12:51:02.124Z,25.92
2022-08-01T12:53:40.751Z,26.03
2022-08-01T12:56:11.338Z,25.75
2022-08-01T12:58:41.840Z,26.38
2022-08-01T13:01:12.566Z,26.05
2022-08-01T13:03:41.854Z,26.77
2022-08-01T13:06:16.264Z,25.90
2022-08-01T13:08:46.649Z,26.33
2022-08-01T13:11:18.315Z,26.52
2022-08-01T13:13:50.439Z,26.93
2022-08-01T13:16:30.469Z,27.40
2022-08-01T13:19:07.878Z,26.80
2022-08-01T13:21:53.608Z,26.53
2022-08-01T13:24:27.872Z,26.85
2022-08-01T13:27:01.725Z,27.17
2022-08-01T13:29:38.807Z,27.25
2022-08-01T13:32:28.972Z,27.01
2022-08-01T13:35:04.978Z,25.85
2022-08-01T13:37:33.652Z,26.42
2022-08-01T13:40:02.375Z,26.16
2022-08-01T13:42:31.318Z,26.12
2022-08-01T13:45:01.344Z,26.05
2022-08-01T13:47:32.696Z,26.30
2022-08-01T13:50:04.080Z,25.53
2022-08-01T13:52:33.039Z,25.76
2022-08-01T13:55:02.209Z,26.18
2022-08-01T13:57:36.942Z,26.02
2022-08-01T14:00:10.316Z,26.18
2022-08-01T14:02:39.006Z,26.25
2022-08-01T14:05:08.709Z,26.29
2022-08-01T14:07:38.141Z,26.25
2022-08-01T14:10:19.398Z,26.18
2022-08-01T14:12:49.636Z,25.75
2022-08-01T14:15:36.722Z,25.64
2022-08-01T14:18:09.591Z,25.83
2022-08-01T14:20:39.232Z,26.06
2022-08-01T14:23:09.035Z,26.33
2022-08-01T14:26:02.978Z,26.19
2022-08-01T14:28:28.938Z,25.72
2022-08-01T14:30:59.431Z,25.67
2022-08-01T14:33:28.840Z,25.71
2022-08-01T14:36:05.898Z,26.17
2022-08-01T14:38:46.890Z,25.94
2022-08-01T14:41:15.813Z,26.37
2022-08-01T14:43:44.654Z,26.47
2022-08-01T14:46:14.819Z,25.86
2022-08-01T14:48:43.896Z,25.48
2022-08-01T14:51:12.651Z,26.21
2022-08-01T14:53:44.211Z,26.65
2022-08-01T14:56:19.563Z,26.20
2022-08-01T14:58:48.610Z,26.91
2022-08-01T15:01:19.153Z,27.29
2022-08-01T15:03:49.021Z,26.85
2022-08-01T15:06:17.764Z,26.48
2022-08-01T15:08:46.577Z,26.38
2022-08-01T15:11:15.302Z,26.23
2022-08-01T15:13:43.917Z,25.56
2022-08-01T15:16:12.856Z,25.90
2022-08-01T15:18:43.221Z,25.65
2022-08-01T15:21:24.703Z,25.70
2022-08-01T15:24:00.564Z,26.37
2022-08-01T15:26:30.751Z,25.83
2022-08-01T15:28:59.619Z,26.16
2022-08-01T15:31:28.296Z,26.70
2022-08-01T15:33:59.287Z,26.48
2022-08-01T15:36:30.454Z,25.86
2022-08-01T15:39:00.690Z,25.77
2022-08-01T15:41:29.327Z,26.42
2022-08-01T15:43:57.956Z,25.83
2022-08-01T15:46:26.590Z,25.59
2022-08-01T15:48:55.293Z,25.86
2022-08-01T15:51:25.319Z,27.05
2022-08-01T15:53:53.901Z,26.28
2022-08-01T15:56:22.552Z,26.55
2022-08-01T15:58:51.353Z,26.10
2022-08-01T16:01:20.482Z,25.67
2022-08-01T16:03:49.289Z,26.36
2022-08-01T16:06:17.917Z,26.00
2022-08-01T16:08:47.905Z,25.40
2022-08-01T16:11:16.729Z,26.07
2022-08-01T16:13:45.772Z,25.77
2022-08-01T16:16:15.328Z,26.15
2022-08-01T16:18:44.095Z,26.31
2022-08-01T16:21:12.862Z,26.58
2022-08-01T16:23:41.743Z,26.24
2022-08-01T16:26:12.066Z,26.55
2022-08-01T16:28:56.326Z,25.61
2022-08-01T16:31:37.555Z,25.61
2022-08-01T16:34:15.141Z,24.91
2022-08-01T16:36:43.979Z,25.76
2022-08-01T16:39:12.609Z,26.44
2022-08-01T16:41:42.612Z,27.15
2022-08-01T16:44:11.219Z,27.26
2022-08-01T16:46:39.887Z,26.82
2022-08-01T16:49:08.567Z,26.04
2022-08-01T16:51:47.720Z,26.29
2022-08-01T16:54:25.596Z,26.36
2022-08-01T16:56:58.016Z,26.80
2022-08-01T16:59:41.503Z,26.73
2022-08-01T17:02:11.914Z,25.80
2022-08-01T17:04:40.611Z,24.92
2022-08-01T17:07:09.655Z,26.02
2022-08-01T17:09:42.921Z,26.26
2022-08-01T17:12:18.161Z,26.69
2022-08-01T17:14:51.421Z,26.68
2022-08-01T17:17:20.298Z,26.21
2022-08-01T17:19:49.303Z,26.76
2022-08-01T17:22:18.390Z,25.80
2022-08-01T17:24:47.360Z,25.56
2022-08-01T17:27:17.756Z,25.96
2022-08-01T17:29:46.647Z,26.62
2022-08-01T17:32:15.515Z,26.97
2022-08-01T17:34:44.686Z,26.01
2022-08-01T17:37:13.403Z,26.19
2022-08-01T17:39:42.949Z,26.15
2022-08-01T17:42:12.532Z,26.28
2022-08-01T17:44:46.067Z,26.11
2022-08-01T17:47:34.684Z,26.44
2022-08-01T17:50:08.778Z,26.16
2022-08-01T17:52:38.743Z,26.46
2022-08-01T17:55:55.723Z,26.53
2022-08-01T17:57:56.890Z,25.88
2022-08-01T18:00:26.860Z,25.46
2022-08-01T18:02:55.472Z,25.56
2022-08-01T18:05:36.767Z,25.76
2022-08-01T18:08:06.753Z,25.33
2022-08-01T18:10:39.788Z,25.35
2022-08-01T18:13:08.756Z,25.81
2022-08-01T18:15:38.967Z,25.82
2022-08-01T18:18:07.857Z,25.64
2022-08-01T18:20:37.065Z,25.26
2022-08-01T18:23:08.750Z,24.97
2022-08-01T18:25:37.381Z,24.21
2022-08-01T18:28:29.290Z,23.96
2022-08-01T18:30:57.119Z,24.38
2022-08-01T18:33:25.886Z,24.74
2022-08-01T18:35:54.500Z,24.51
2022-08-01T18:38:24.235Z,24.39
2022-08-01T18:40:53.141Z,24.49
2022-08-01T18:43:22.006Z,24.71
2022-08-01T18:45:50.683Z,25.21
2022-08-01T18:48:20.755Z,24.61
2022-08-01T18:50:49.351Z,24.82
2022-08-01T18:53:18.805Z,25.03
2022-08-01T18:55:47.494Z,25.09
2022-08-01T18:58:16.140Z,24.84
2022-08-01T19:00:44.735Z,24.47
2022-08-01T19:03:13.796Z,24.06
2022-08-01T19:05:44.330Z,24.66
2022-08-01T19:08:12.937Z,24.84
2022-08-01T19:10:42.881Z,24.43
2022-08-01T19:13:11.827Z,23.89
2022-08-01T19:15:40.440Z,24.08
2022-08-01T19:18:10.634Z,23.59
2022-08-01T19:20:42.620Z,23.89
2022-08-01T19:23:26.665Z,23.91
2022-08-01T19:25:59.803Z,23.92
2022-08-01T19:28:29.899Z,23.60
2022-08-01T19:31:02.350Z,23.81
2022-08-01T19:33:33.671Z,23.61
2022-08-01T19:36:02.692Z,24.10
2022-08-01T19:38:33.883Z,24.50
2022-08-01T19:41:04.068Z,24.18
2022-08-01T19:43:38.427Z,24.36
2022-08-01T19:46:08.375Z,24.55
2022-08-01T19:48:53.051Z,24.86
2022-08-01T19:51:33.456Z,24.98
2022-08-01T19:54:07.340Z,25.11
2022-08-01T19:56:40.614Z,25.13
2022-08-01T19:59:09.655Z,25.14
2022-08-01T20:01:38.428Z,24.91
2022-08-01T20:04:07.077Z,24.94
2022-08-01T20:06:35.950Z,25.09
2022-08-01T20:09:06.763Z,25.08
2022-08-01T20:11:36.125Z,25.14
2022-08-01T20:14:05.018Z,25.13
2022-08-01T20:16:34.005Z,25.21
2022-08-01T20:19:02.625Z,25.15
2022-08-01T20:21:32.006Z,25.11
2022-08-01T20:24:03.273Z,25.12
2022-08-01T20:26:34.256Z,25.11
2022-08-01T20:29:05.370Z,25.04
2022-08-01T20:31:44.100Z,25.08
2022-08-01T20:34:16.089Z,25.06
2022-08-01T20:36:54.379Z,25.05
2022-08-01T20:39:26.673Z,25.05
2022-08-01T20:41:59.908Z,25.04
2022-08-01T20:44:31.802Z,25.02
2022-08-01T20:47:02.258Z,25.03
2022-08-01T20:49:32.147Z,25.03
2022-08-01T20:52:02.062Z,25.01
2022-08-01T20:54:41.598Z,24.99
2022-08-01T20:57:20.447Z,24.98
2022-08-01T20:59:55.487Z,24.97
2022-08-01T21:02:35.131Z,24.93
2022-08-01T21:05:07.463Z,24.93
2022-08-01T21:07:40.308Z,24.91
2022-08-01T21:10:10.902Z,24.91
2022-08-01T21:12:49.945Z,24.88
2022-08-01T21:15:30.759Z,24.89
2022-08-01T21:18:04.448Z,24.86
2022-08-01T21:20:34.910Z,24.82
2022-08-01T21:23:15.483Z,24.84
2022-08-01T21:25:44.958Z,24.75
2022-08-01T21:28:16.408Z,24.79
2022-08-01T21:30:53.847Z,24.80
2022-08-01T21:33:25.700Z,24.75
2022-08-01T21:36:00.178Z,24.74
2022-08-01T21:38:33.779Z,24.70
2022-08-01T21:41:07.966Z,24.69
2022-08-01T21:43:39.062Z,24.69
2022-08-01T21:46:08.202Z,24.63
2022-08-01T21:48:38.563Z,24.60
2022-08-01T21:51:17.961Z,24.64
2022-08-01T21:53:51.423Z,24.59
2022-08-01T21:56:29.559Z,24.55
2022-08-01T21:59:10.221Z,24.62
2022-08-01T22:01:52.424Z,24.58
2022-08-01T22:04:25.600Z,24.55
2022-08-01T22:06:55.538Z,24.50
2022-08-01T22:09:24.617Z,24.49
2022-08-01T22:12:00.802Z,24.44
2022-08-01T22:14:33.725Z,24.40
2022-08-01T22:17:02.413Z,24.38
2022-08-01T22:19:44.114Z,24.39
2022-08-01T22:22:34.217Z,24.39
2022-08-01T22:25:03.085Z,24.40
2022-08-01T22:28:02.789Z,24.37
2022-08-01T22:30:23.783Z,24.41
2022-08-01T22:33:15.246Z,24.31
2022-08-01T22:35:47.355Z,24.27
2022-08-01T22:38:17.852Z,24.26
2022-08-01T22:40:51.135Z,24.18
2022-08-01T22:43:30.489Z,24.16
2022-08-01T22:46:16.787Z,24.19
2022-08-01T22:48:50.043Z,24.14
2022-08-01T22:51:28.089Z,24.14
2022-08-01T22:54:04.055Z,24.16
2022-08-01T22:56:37.783Z,24.14
2022-08-01T22:59:14.837Z,24.12
2022-08-01T23:01:50.473Z,24.10
2022-08-01T23:04:29.801Z,24.09
2022-08-01T23:07:06.280Z,24.04
2022-08-01T23:09:53.279Z,24.03
2022-08-01T23:12:28.053Z,24.03
2022-08-01T23:14:58.751Z,24.00
2022-08-01T23:17:30.816Z,23.90
2022-08-01T23:20:01.259Z,23.89
2022-08-01T23:22:32.271Z,23.88
2022-08-01T23:25:04.502Z,23.88
2022-08-01T23:28:03.847Z,23.92
2022-08-01T23:30:27.695Z,23.88
2022-08-01T23:32:58.069Z,23.88
2022-08-01T23:35:27.299Z,23.87
2022-08-01T23:38:02.251Z,23.90
2022-08-01T23:40:33.030Z,23.84
2022-08-01T23:43:02.954Z,23.74
2022-08-01T23:46:01.820Z,23.71
2022-08-01T23:48:21.958Z,23.71
2022-08-01T23:50:52.628Z,23.67
2022-08-01T23:53:21.234Z,23.73
2022-08-01T23:55:49.948Z,23.70
2022-08-01T23:58:18.803Z,23.70
